createdAt,value
2023-04-25T00:00:38.556Z,12.40
2023-04-25T00:03:10.568Z,12.40
2023-04-25T00:05:42.682Z,12.40
2023-04-25T00:08:13.786Z,12.40
2023-04-25T00:10:43.069Z,12.40
2023-04-25T00:13:23.553Z,12.40
2023-04-25T00:16:04.092Z,12.40
2023-04-25T00:18:36.352Z,12.40
2023-04-25T00:21:08.905Z,12.40
2023-04-25T00:23:44.614Z,12.40
2023-04-25T00:26:13.380Z,12.30
2023-04-25T00:29:00.339Z,12.30
2023-04-25T00:31:34.750Z,12.30
2023-04-25T00:34:14.213Z,12.30
2023-04-25T00:36:46.164Z,12.30
2023-04-25T00:39:24.098Z,12.30
2023-04-25T00:42:05.770Z,12.30
2023-04-25T00:44:40.710Z,12.30
2023-04-25T00:47:13.250Z,12.30
2023-04-25T00:49:50.344Z,12.20
2023-04-25T00:52:20.868Z,12.20
2023-04-25T00:55:00.726Z,12.20
2023-04-25T00:57:33.686Z,12.20
2023-04-25T01:00:10.914Z,12.20
2023-04-25T01:02:46.516Z,12.20
2023-04-25T01:05:16.575Z,12.20
2023-04-25T01:07:49.479Z,12.10
2023-04-25T01:10:34.127Z,12.10
2023-04-25T01:13:10.148Z,12.10
2023-04-25T01:15:46.053Z,12.10
2023-04-25T01:18:21.237Z,12.10
2023-04-25T01:20:53.978Z,12.10
2023-04-25T01:23:25.707Z,12.10
2023-04-25T01:26:01.989Z,12.10
2023-04-25T01:28:31.247Z,12.10
2023-04-25T01:31:06.025Z,12.10
2023-04-25T01:33:34.971Z,12.00
2023-04-25T01:36:08.751Z,12.00
2023-04-25T01:38:45.003Z,12.00
2023-04-25T01:41:25.010Z,12.00
2023-04-25T01:44:14.689Z,12.00
2023-04-25T01:46:45.938Z,12.00
2023-04-25T01:49:24.318Z,12.00
2023-04-25T01:51:59.599Z,12.00
2023-04-25T01:54:32.100Z,12.00
2023-04-25T01:57:05.219Z,11.90
2023-04-25T01:59:40.766Z,11.90
2023-04-25T02:02:30.162Z,11.90
2023-04-25T02:05:00.470Z,11.90
2023-04-25T02:07:38.085Z,11.80
2023-04-25T02:10:28.972Z,11.80
2023-04-25T02:13:22.712Z,11.70
2023-04-25T02:16:20.392Z,11.70
2023-04-25T02:19:00.636Z,11.70
2023-04-25T02:21:32.210Z,11.70
2023-04-25T02:24:08.667Z,11.70
2023-04-25T02:26:47.370Z,11.70
2023-04-25T02:29:19.893Z,11.60
2023-04-25T02:31:50.562Z,11.60
2023-04-25T02:34:25.467Z,11.60
2023-04-25T02:37:04.914Z,11.60
2023-04-25T02:39:40.976Z,11.60
2023-04-25T02:42:21.269Z,11.60
2023-04-25T02:44:54.621Z,11.60
2023-04-25T02:47:26.709Z,11.60
2023-04-25T02:50:00.658Z,11.60
2023-04-25T02:52:31.583Z,11.60
2023-04-25T02:55:31.326Z,11.50
2023-04-25T02:58:10.755Z,11.60
2023-04-25T03:01:05.599Z,11.50
2023-04-25T03:03:50.407Z,11.50
2023-04-25T03:06:33.030Z,11.50
2023-04-25T03:09:03.599Z,11.60
2023-04-25T03:11:49.367Z,11.60
2023-04-25T03:14:23.756Z,11.60
2023-04-25T03:16:58.119Z,11.60
2023-04-25T03:19:31.004Z,11.60
2023-04-25T03:22:10.122Z,11.60
2023-04-25T03:24:49.241Z,11.70
2023-04-25T03:27:30.180Z,11.70
2023-04-25T03:32:57.685Z,11.60
2023-04-25T03:35:29.585Z,11.60
2023-04-25T03:38:02.844Z,11.60
2023-04-25T03:40:40.675Z,11.60
2023-04-25T03:43:41.491Z,11.60
2023-04-25T03:46:23.751Z,11.60
2023-04-25T03:48:57.608Z,11.60
2023-04-25T03:51:39.840Z,11.60
2023-04-25T03:54:14.226Z,11.60
2023-04-25T03:59:30.740Z,11.60
2023-04-25T04:02:10.262Z,11.60
2023-04-25T04:04:47.542Z,11.60
2023-04-25T04:07:19.903Z,11.60
2023-04-25T04:09:57.896Z,11.50
2023-04-25T04:12:36.822Z,11.60
2023-04-25T04:15:08.392Z,11.60
2023-04-25T04:17:50.737Z,11.60
2023-04-25T04:20:23.220Z,11.50
2023-04-25T04:22:54.033Z,11.50
2023-04-25T04:25:33.491Z,11.50
2023-04-25T04:28:19.047Z,11.50
2023-04-25T04:31:07.483Z,11.50
2023-04-25T04:33:42.737Z,11.50
2023-04-25T04:36:20.995Z,11.50
2023-04-25T04:38:56.591Z,11.40
2023-04-25T04:41:38.729Z,11.40
2023-04-25T04:44:14.319Z,11.40
2023-04-25T04:47:19.044Z,11.40
2023-04-25T04:50:19.455Z,11.30
2023-04-25T04:53:41.498Z,11.30
2023-04-25T04:56:50.958Z,11.30
2023-04-25T04:59:56.530Z,11.30
2023-04-25T05:02:48.659Z,11.30
2023-04-25T05:05:54.077Z,11.30
2023-04-25T05:08:48.913Z,11.30
2023-04-25T05:11:41.464Z,11.30
2023-04-25T05:14:29.598Z,11.30
2023-04-25T05:17:15.372Z,11.30
2023-04-25T05:20:05.093Z,11.40
2023-04-25T05:23:19.908Z,11.30
2023-04-25T05:26:06.812Z,11.40
2023-04-25T05:29:02.659Z,11.40
2023-04-25T05:32:08.379Z,11.40
2023-04-25T05:34:47.281Z,11.40
2023-04-25T05:37:33.537Z,11.40
2023-04-25T05:40:31.524Z,11.50
2023-04-25T05:43:21.124Z,11.50
2023-04-25T05:46:01.361Z,11.50
2023-04-25T05:48:50.284Z,11.50
2023-04-25T05:51:47.327Z,11.50
2023-04-25T05:54:48.167Z,11.50
2023-04-25T05:57:24.127Z,11.50
2023-04-25T05:59:56.822Z,11.50
2023-04-25T06:02:51.110Z,11.50
2023-04-25T06:05:28.322Z,11.60
2023-04-25T06:08:00.483Z,11.60
2023-04-25T06:10:39.855Z,11.70
2023-04-25T06:13:12.854Z,11.70
2023-04-25T06:15:41.899Z,11.70
2023-04-25T06:18:14.556Z,11.70
2023-04-25T06:20:54.362Z,11.70
2023-04-25T06:23:25.167Z,11.70
2023-04-25T06:26:01.732Z,11.70
2023-04-25T06:28:38.100Z,11.70
2023-04-25T06:31:08.814Z,11.80
2023-04-25T06:33:43.488Z,11.80
2023-04-25T06:36:26.027Z,11.90
2023-04-25T06:39:05.987Z,11.80
2023-04-25T06:41:43.313Z,11.80
2023-04-25T06:44:41.026Z,11.70
2023-04-25T06:47:17.145Z,11.60
2023-04-25T06:49:58.141Z,11.60
2023-04-25T06:52:36.427Z,11.50
2023-04-25T06:55:11.583Z,11.50
2023-04-25T06:58:15.102Z,11.40
2023-04-25T07:01:10.394Z,11.40
2023-04-25T07:03:45.617Z,11.40
2023-04-25T07:06:26.740Z,11.40
2023-04-25T07:08:58.731Z,11.40
2023-04-25T07:11:29.590Z,11.40
2023-04-25T07:14:09.262Z,11.30
2023-04-25T07:16:47.243Z,11.30
2023-04-25T07:19:21.893Z,11.30
2023-04-25T07:22:00.645Z,11.20
2023-04-25T07:24:41.568Z,11.20
2023-04-25T07:27:25.522Z,11.20
2023-04-25T07:29:58.524Z,11.20
2023-04-25T07:32:35.107Z,11.30
2023-04-25T07:35:06.973Z,11.30
2023-04-25T07:37:38.151Z,11.40
2023-04-25T07:40:18.037Z,11.40
2023-04-25T07:42:56.090Z,11.50
2023-04-25T07:45:47.541Z,11.50
2023-04-25T07:48:37.259Z,11.60
2023-04-25T07:51:09.312Z,11.70
2023-04-25T07:53:44.290Z,11.80
2023-04-25T07:56:21.426Z,11.90
2023-04-25T07:58:55.129Z,12.00
2023-04-25T08:01:29.483Z,12.00
2023-04-25T08:04:12.067Z,12.10
2023-04-25T08:07:02.155Z,12.20
2023-04-25T08:09:40.082Z,12.20
2023-04-25T08:12:21.095Z,12.20
2023-04-25T08:14:54.318Z,12.20
2023-04-25T08:17:31.018Z,12.30
2023-04-25T08:20:10.270Z,12.30
2023-04-25T08:22:46.856Z,12.30
2023-04-25T08:25:28.329Z,12.30
2023-04-25T08:28:00.743Z,12.20
2023-04-25T08:30:34.034Z,12.10
2023-04-25T08:33:12.438Z,12.10
2023-04-25T08:36:03.885Z,12.20
2023-04-25T08:38:40.736Z,12.20
2023-04-25T08:41:14.849Z,12.20
2023-04-25T08:43:46.964Z,12.20
2023-04-25T08:46:28.552Z,12.10
2023-04-25T08:49:18.469Z,12.20
2023-04-25T08:51:56.674Z,12.20
2023-04-25T08:54:41.713Z,12.20
2023-04-25T08:57:14.579Z,12.20
2023-04-25T08:59:49.868Z,12.30
2023-04-25T09:02:32.361Z,12.20
2023-04-25T09:05:13.520Z,12.30
2023-04-25T09:07:59.079Z,12.30
2023-04-25T09:13:20.913Z,12.40
2023-04-25T09:16:23.192Z,12.50
2023-04-25T09:22:11.277Z,12.50
2023-04-25T09:24:59.354Z,12.60
2023-04-25T09:27:38.314Z,12.60
2023-04-25T09:30:38.012Z,12.60
2023-04-25T09:33:37.201Z,12.70
2023-04-25T09:36:31.489Z,12.60
2023-04-25T09:39:29.635Z,12.60
2023-04-25T09:42:28.232Z,12.60
2023-04-25T09:45:12.632Z,12.60
2023-04-25T09:48:09.249Z,12.60
2023-04-25T09:51:10.711Z,12.60
2023-04-25T09:54:04.558Z,12.60
2023-04-25T09:57:02.060Z,12.70
2023-04-25T09:59:40.570Z,12.70
2023-04-25T10:02:17.452Z,12.70
2023-04-25T10:05:09.715Z,12.80
2023-04-25T10:07:52.566Z,12.90
2023-04-25T10:10:32.072Z,13.00
2023-04-25T10:13:05.767Z,13.00
2023-04-25T10:16:10.213Z,13.00
2023-04-25T10:18:55.299Z,13.00
2023-04-25T10:21:28.779Z,12.90
2023-04-25T10:23:59.713Z,12.90
2023-04-25T10:26:36.182Z,12.90
2023-04-25T10:29:14.190Z,13.00
2023-04-25T10:31:49.110Z,13.00
2023-04-25T10:34:46.727Z,13.00
2023-04-25T10:37:21.236Z,13.10
2023-04-25T10:39:55.024Z,13.10
2023-04-25T10:42:31.501Z,13.20
2023-04-25T10:45:13.312Z,13.30
2023-04-25T10:47:49.362Z,13.40
2023-04-25T10:50:32.386Z,13.40
2023-04-25T10:53:20.107Z,13.40
2023-04-25T10:55:57.582Z,13.40
2023-04-25T10:58:28.564Z,13.40
2023-04-25T11:01:09.162Z,13.40
2023-04-25T11:03:54.310Z,13.50
2023-04-25T11:06:47.299Z,13.40
2023-04-25T11:09:21.209Z,13.50
2023-04-25T11:12:04.577Z,13.50
2023-04-25T11:14:44.399Z,13.50
2023-04-25T11:17:19.451Z,13.40
2023-04-25T11:19:56.845Z,13.20
2023-04-25T11:22:44.693Z,13.20
2023-04-25T11:25:16.321Z,13.10
2023-04-25T11:28:00.221Z,13.10
2023-04-25T11:30:39.221Z,13.10
2023-04-25T11:33:16.182Z,13.10
2023-04-25T11:35:51.497Z,13.10
2023-04-25T11:38:32.505Z,13.20
2023-04-25T11:41:07.822Z,13.30
2023-04-25T11:43:43.422Z,13.50
2023-04-25T11:46:28.134Z,13.50
2023-04-25T11:49:06.002Z,13.60
2023-04-25T11:51:43.013Z,13.60
2023-04-25T11:54:16.733Z,13.70
2023-04-25T11:56:53.479Z,13.70
2023-04-25T11:59:33.553Z,13.60
2023-04-25T12:02:10.958Z,13.50
2023-04-25T12:04:49.522Z,13.50
2023-04-25T12:07:25.578Z,13.50
2023-04-25T12:10:14.050Z,13.50
2023-04-25T12:12:48.204Z,13.50
2023-04-25T12:15:23.065Z,13.60
2023-04-25T12:17:57.561Z,13.60
2023-04-25T12:20:30.666Z,13.50
2023-04-25T12:23:01.843Z,13.50
2023-04-25T12:25:40.324Z,13.40
2023-04-25T12:28:38.933Z,13.20
2023-04-25T12:31:18.888Z,13.10
2023-04-25T12:33:49.665Z,13.00
2023-04-25T12:36:27.112Z,13.00
2023-04-25T12:38:58.095Z,12.90
2023-04-25T12:41:43.604Z,12.90
2023-04-25T12:44:15.201Z,12.90
2023-04-25T12:46:54.750Z,12.90
2023-04-25T12:49:26.761Z,12.80
2023-04-25T12:52:04.819Z,12.90
2023-04-25T12:54:39.038Z,12.90
2023-04-25T12:57:21.503Z,12.90
2023-04-25T12:59:56.694Z,12.90
2023-04-25T13:02:25.962Z,12.80
2023-04-25T13:04:59.686Z,12.80
2023-04-25T13:07:37.779Z,12.90
2023-04-25T13:10:16.548Z,12.90
2023-04-25T13:12:58.246Z,12.90
2023-04-25T13:15:34.762Z,12.90
2023-04-25T13:18:09.651Z,13.00
2023-04-25T13:20:40.816Z,13.00
2023-04-25T13:23:14.656Z,13.00
2023-04-25T13:25:45.457Z,13.00
2023-04-25T13:28:27.228Z,13.00
2023-04-25T13:31:02.008Z,13.00
2023-04-25T13:33:38.078Z,13.10
2023-04-25T13:36:10.444Z,13.20
2023-04-25T13:38:47.336Z,13.20
2023-04-25T13:41:22.102Z,13.40
2023-04-25T13:44:04.081Z,13.50
2023-04-25T13:49:17.068Z,13.80
2023-04-25T13:51:56.466Z,13.80
2023-04-25T13:54:29.962Z,13.80
2023-04-25T13:57:14.243Z,13.80
2023-04-25T13:59:49.383Z,13.80
2023-04-25T14:02:25.094Z,13.80
2023-04-25T14:04:56.265Z,13.70
2023-04-25T14:07:31.871Z,13.70
2023-04-25T14:10:05.678Z,13.70
2023-04-25T14:12:46.426Z,13.80
2023-04-25T14:15:24.964Z,13.90
2023-04-25T14:18:02.716Z,14.00
2023-04-25T14:20:35.956Z,14.10
2023-04-25T14:23:08.316Z,14.20
2023-04-25T14:25:47.939Z,14.30
2023-04-25T14:28:21.272Z,14.30
2023-04-25T14:30:57.669Z,14.30
2023-04-25T14:33:28.068Z,14.20
2023-04-25T14:36:00.794Z,14.20
2023-04-25T14:38:33.998Z,14.20
2023-04-25T14:41:08.306Z,14.20
2023-04-25T14:43:44.527Z,14.20
2023-04-25T14:46:19.698Z,14.10
2023-04-25T14:48:54.714Z,14.10
2023-04-25T14:51:24.428Z,14.00
2023-04-25T14:54:05.995Z,13.90
2023-04-25T14:56:38.952Z,13.90
2023-04-25T14:59:10.130Z,13.80
2023-04-25T15:01:50.645Z,13.80
2023-04-25T15:04:26.848Z,13.90
2023-04-25T15:07:00.926Z,13.80
2023-04-25T15:09:34.885Z,13.90
2023-04-25T15:12:12.007Z,13.80
2023-04-25T15:14:45.054Z,13.80
2023-04-25T15:17:15.780Z,13.70
2023-04-25T15:19:49.724Z,13.70
2023-04-25T15:22:20.661Z,13.70
2023-04-25T15:25:00.719Z,13.70
2023-04-25T15:27:34.104Z,13.70
2023-04-25T15:30:30.625Z,13.60
2023-04-25T15:33:17.668Z,13.60
2023-04-25T15:35:54.958Z,13.60
2023-04-25T15:38:34.342Z,13.60
2023-04-25T15:41:08.094Z,13.60
2023-04-25T15:43:43.784Z,13.70
2023-04-25T15:46:21.345Z,13.70
2023-04-25T15:49:01.578Z,13.70
2023-04-25T15:51:34.424Z,13.60
2023-04-25T15:54:08.757Z,13.60
2023-04-25T15:56:39.181Z,13.60
2023-04-25T15:59:10.287Z,13.60
2023-04-25T16:01:47.991Z,13.70
2023-04-25T16:04:40.311Z,13.70
2023-04-25T16:07:25.939Z,13.60
2023-04-25T16:10:07.787Z,13.60
2023-04-25T16:12:53.303Z,13.50
2023-04-25T16:15:35.759Z,13.50
2023-04-25T16:18:06.635Z,13.40
2023-04-25T16:20:54.406Z,13.40
2023-04-25T16:23:26.793Z,13.40
2023-04-25T16:26:06.282Z,13.40
2023-04-25T16:28:36.572Z,13.40
2023-04-25T16:31:14.824Z,13.50
2023-04-25T16:33:57.976Z,13.50
2023-04-25T16:36:43.165Z,13.40
2023-04-25T16:39:14.769Z,13.30
2023-04-25T16:41:55.300Z,13.30
2023-04-25T16:44:28.975Z,13.30
2023-04-25T16:47:11.614Z,13.30
2023-04-25T16:49:51.336Z,13.30
2023-04-25T16:52:31.225Z,13.30
2023-04-25T16:55:01.787Z,13.30
2023-04-25T16:57:36.696Z,13.30
2023-04-25T17:00:17.338Z,13.40
2023-04-25T17:02:55.455Z,13.30
2023-04-25T17:05:31.090Z,13.30
2023-04-25T17:08:03.121Z,13.20
2023-04-25T17:10:34.896Z,13.20
2023-04-25T17:13:09.137Z,13.00
2023-04-25T17:15:42.706Z,13.00
2023-04-25T17:18:19.307Z,12.90
2023-04-25T17:20:51.429Z,12.90
2023-04-25T17:23:39.926Z,12.80
2023-04-25T17:26:14.893Z,12.80
2023-04-25T17:28:55.405Z,12.80
2023-04-25T17:31:27.083Z,12.80
2023-04-25T17:34:01.270Z,12.80
2023-04-25T17:36:38.576Z,12.80
2023-04-25T17:39:24.660Z,12.90
2023-04-25T17:41:55.007Z,12.90
2023-04-25T17:44:36.745Z,12.90
2023-04-25T17:47:08.732Z,13.00
2023-04-25T17:49:44.111Z,13.00
2023-04-25T17:52:24.537Z,13.00
2023-04-25T17:55:15.523Z,13.00
2023-04-25T17:57:48.940Z,13.10
2023-04-25T18:00:33.026Z,13.10
2023-04-25T18:03:05.394Z,13.10
2023-04-25T18:05:37.321Z,13.10
2023-04-25T18:08:18.649Z,13.10
2023-04-25T18:10:53.708Z,13.10
2023-04-25T18:13:27.837Z,13.00
2023-04-25T18:15:59.284Z,13.00
2023-04-25T18:18:34.543Z,13.00
2023-04-25T18:21:14.586Z,13.00
2023-04-25T18:23:56.198Z,13.00
2023-04-25T18:26:37.505Z,13.00
2023-04-25T18:29:31.318Z,13.00
2023-04-25T18:32:07.786Z,12.90
2023-04-25T18:34:48.393Z,12.80
2023-04-25T18:37:26.168Z,12.80
2023-04-25T18:39:59.946Z,12.80
2023-04-25T18:42:41.226Z,12.80
2023-04-25T18:45:21.480Z,12.80
2023-04-25T18:47:50.016Z,12.70
2023-04-25T18:50:29.822Z,12.70
2023-04-25T18:53:03.134Z,12.60
2023-04-25T18:55:36.650Z,12.60
2023-04-25T18:58:21.658Z,12.60
2023-04-25T19:01:06.978Z,12.50
2023-04-25T19:03:41.489Z,12.40
2023-04-25T19:06:20.081Z,12.40
2023-04-25T19:08:53.498Z,12.40
2023-04-25T19:11:24.641Z,12.40
2023-04-25T19:13:59.054Z,12.40
2023-04-25T19:16:27.941Z,12.30
2023-04-25T19:19:00.121Z,12.30
2023-04-25T19:21:32.075Z,12.20
2023-04-25T19:24:07.565Z,12.20
2023-04-25T19:26:45.156Z,12.10
2023-04-25T19:29:19.736Z,12.00
2023-04-25T19:31:53.132Z,12.00
2023-04-25T19:34:36.142Z,12.00
2023-04-25T19:37:09.745Z,12.00
2023-04-25T19:39:43.958Z,12.00
2023-04-25T19:42:17.148Z,12.00
2023-04-25T19:44:56.399Z,11.90
2023-04-25T19:47:30.263Z,11.90
2023-04-25T19:50:03.920Z,11.90
2023-04-25T19:52:43.368Z,11.90
2023-04-25T19:55:15.052Z,11.90
2023-04-25T19:57:52.969Z,11.80
2023-04-25T20:00:33.803Z,11.80
2023-04-25T20:03:09.967Z,11.70
2023-04-25T20:05:48.708Z,11.70
2023-04-25T20:08:19.230Z,11.70
2023-04-25T20:10:49.969Z,11.70
2023-04-25T20:13:22.881Z,11.60
2023-04-25T20:16:08.398Z,11.60
2023-04-25T20:18:40.429Z,11.50
2023-04-25T20:21:13.768Z,11.30
2023-04-25T20:23:49.772Z,11.30
2023-04-25T20:26:24.588Z,11.20
2023-04-25T20:29:03.230Z,11.10
2023-04-25T20:31:40.897Z,11.10
2023-04-25T20:34:15.700Z,11.00
2023-04-25T20:36:55.917Z,10.90
2023-04-25T20:39:26.554Z,10.80
2023-04-25T20:42:08.689Z,10.80
2023-04-25T20:44:41.071Z,10.80
2023-04-25T20:47:17.322Z,10.70
2023-04-25T20:49:49.372Z,10.60
2023-04-25T20:52:21.465Z,10.60
2023-04-25T20:54:56.795Z,10.50
2023-04-25T20:57:39.153Z,10.50
2023-04-25T21:00:19.273Z,10.40
2023-04-25T21:03:04.000Z,10.40
2023-04-25T21:05:38.851Z,10.30
2023-04-25T21:08:20.851Z,10.20
2023-04-25T21:10:51.448Z,10.10
2023-04-25T21:13:33.496Z,10.10
2023-04-25T21:16:05.228Z,10.00
2023-04-25T21:18:43.902Z,10.00
2023-04-25T21:21:21.778Z,9.90
2023-04-25T21:24:02.110Z,9.80
2023-04-25T21:26:36.693Z,9.80
2023-04-25T21:29:14.000Z,9.70
2023-04-25T21:31:51.244Z,9.70
2023-04-25T21:34:34.259Z,9.70
2023-04-25T21:37:05.784Z,9.70
2023-04-25T21:39:39.864Z,9.60
2023-04-25T21:42:18.055Z,9.60
2023-04-25T21:44:51.744Z,9.60
2023-04-25T21:47:26.188Z,9.50
2023-04-25T21:50:04.362Z,9.50
2023-04-25T21:52:38.799Z,9.40
2023-04-25T21:55:14.262Z,9.40
2023-04-25T21:57:43.926Z,9.40
2023-04-25T22:00:21.999Z,9.40
2023-04-25T22:03:03.144Z,9.40
2023-04-25T22:05:42.554Z,9.30
2023-04-25T22:08:11.488Z,9.30
2023-04-25T22:10:49.585Z,9.30
2023-04-25T22:13:29.070Z,9.20
2023-04-25T22:16:02.886Z,9.20
2023-04-25T22:18:40.997Z,9.10
2023-04-25T22:21:31.468Z,9.10
2023-04-25T22:24:11.036Z,9.00
2023-04-25T22:26:49.450Z,8.90
2023-04-25T22:29:30.726Z,8.90
2023-04-25T22:32:05.428Z,8.80
2023-04-25T22:34:42.004Z,8.80
2023-04-25T22:37:24.156Z,8.80
2023-04-25T22:40:05.926Z,8.80
2023-04-25T22:42:48.281Z,8.70
2023-04-25T22:45:22.079Z,8.70
2023-04-25T22:47:55.370Z,8.70
2023-04-25T22:50:33.418Z,8.70
2023-04-25T22:53:12.588Z,8.70
2023-04-25T22:55:45.252Z,8.60
2023-04-25T22:58:18.008Z,8.60
2023-04-25T23:00:48.849Z,8.60
2023-04-25T23:03:17.408Z,8.50
2023-04-25T23:05:48.719Z,8.40
2023-04-25T23:08:27.228Z,8.40
2023-04-25T23:13:49.453Z,8.30
2023-04-25T23:16:22.331Z,8.30
2023-04-25T23:18:56.264Z,8.30
2023-04-25T23:21:31.839Z,8.20
2023-04-25T23:24:12.416Z,8.20
2023-04-25T23:26:47.937Z,8.20
2023-04-25T23:29:30.223Z,8.20
2023-04-25T23:32:03.981Z,8.20
2023-04-25T23:34:39.791Z,8.20
2023-04-25T23:37:12.511Z,8.20
2023-04-25T23:39:57.861Z,8.10
2023-04-25T23:42:29.615Z,8.10
2023-04-25T23:45:01.365Z,8.10
2023-04-25T23:47:36.711Z,8.00
2023-04-25T23:50:12.876Z,8.00
2023-04-25T23:52:47.437Z,8.00
2023-04-25T23:55:22.492Z,8.00
2023-04-25T23:57:58.216Z,7.90
